sensor_id;sensor_type;location;lat;lon;timestamp;pressure;altitude;pressure_sealevel;temperature;humidity
15750;BME280;7976;52.526;13.326;2023-04-26T00:00:18;100907.84;;;6.72;67.92
15750;BME280;7976;52.526;13.326;2023-04-26T00:02:45;100913.03;;;6.72;68.08
15750;BME280;7976;52.526;13.326;2023-04-26T00:05:13;100913.84;;;6.76;67.98
15750;BME280;7976;52.526;13.326;2023-04-26T00:07:41;100913.91;;;6.73;68.12
15750;BME280;7976;52.526;13.326;2023-04-26T00:10:09;100911.34;;;6.71;68.42
15750;BME280;7976;52.526;13.326;2023-04-26T00:12:36;100900.94;;;6.71;68.27
15750;BME280;7976;52.526;13.326;2023-04-26T00:15:07;100914.03;;;6.65;68.37
15750;BME280;7976;52.526;13.326;2023-04-26T00:17:34;100912.47;;;6.57;68.62
15750;BME280;7976;52.526;13.326;2023-04-26T00:20:01;100912.56;;;6.52;69.01
15750;BME280;7976;52.526;13.326;2023-04-26T00:22:33;100910.00;;;6.49;68.94
15750;BME280;7976;52.526;13.326;2023-04-26T00:25:01;100910.88;;;6.48;69.29
15750;BME280;7976;52.526;13.326;2023-04-26T00:27:28;100909.13;;;6.50;69.44
15750;BME280;7976;52.526;13.326;2023-04-26T00:29:55;100905.69;;;6.50;69.26
15750;BME280;7976;52.526;13.326;2023-04-26T00:32:22;100911.66;;;6.53;69.26
15750;BME280;7976;52.526;13.326;2023-04-26T00:34:49;100919.53;;;6.49;69.78
15750;BME280;7976;52.526;13.326;2023-04-26T00:37:16;100922.31;;;6.38;69.78
15750;BME280;7976;52.526;13.326;2023-04-26T00:39:43;100912.03;;;6.32;69.89
15750;BME280;7976;52.526;13.326;2023-04-26T00:42:12;100916.38;;;6.31;70.15
15750;BME280;7976;52.526;13.326;2023-04-26T00:44:39;100919.88;;;6.30;70.43
15750;BME280;7976;52.526;13.326;2023-04-26T00:47:06;100912.09;;;6.29;70.48
15750;BME280;7976;52.526;13.326;2023-04-26T00:49:33;100919.06;;;6.27;70.52
15750;BME280;7976;52.526;13.326;2023-04-26T00:52:00;100912.16;;;6.26;71.00
15750;BME280;7976;52.526;13.326;2023-04-26T00:54:28;100915.63;;;6.25;71.18
15750;BME280;7976;52.526;13.326;2023-04-26T00:56:56;100918.25;;;6.23;71.07
15750;BME280;7976;52.526;13.326;2023-04-26T00:59:25;100911.41;;;6.19;71.42
15750;BME280;7976;52.526;13.326;2023-04-26T01:01:52;100915.75;;;6.17;71.20
15750;BME280;7976;52.526;13.326;2023-04-26T01:04:19;100922.63;;;6.20;71.56
15750;BME280;7976;52.526;13.326;2023-04-26T01:06:51;100919.25;;;6.15;71.44
15750;BME280;7976;52.526;13.326;2023-04-26T01:09:18;100921.06;;;6.10;71.79
15750;BME280;7976;52.526;13.326;2023-04-26T01:11:45;100923.72;;;6.07;71.58
15750;BME280;7976;52.526;13.326;2023-04-26T01:14:14;100919.44;;;6.03;71.85
15750;BME280;7976;52.526;13.326;2023-04-26T01:16:43;100914.25;;;6.03;72.08
15750;BME280;7976;52.526;13.326;2023-04-26T01:19:12;100926.44;;;6.01;72.00
15750;BME280;7976;52.526;13.326;2023-04-26T01:21:40;100931.63;;;6.01;72.19
15750;BME280;7976;52.526;13.326;2023-04-26T01:24:10;100925.56;;;6.00;72.01
15750;BME280;7976;52.526;13.326;2023-04-26T01:26:37;100931.66;;;5.98;72.13
15750;BME280;7976;52.526;13.326;2023-04-26T01:29:14;100931.69;;;5.95;72.61
15750;BME280;7976;52.526;13.326;2023-04-26T01:31:42;100936.09;;;5.90;72.74
15750;BME280;7976;52.526;13.326;2023-04-26T01:34:09;100940.47;;;5.89;72.95
15750;BME280;7976;52.526;13.326;2023-04-26T01:36:36;100942.19;;;5.89;72.71
15750;BME280;7976;52.526;13.326;2023-04-26T01:39:03;100951.69;;;5.90;73.21
15750;BME280;7976;52.526;13.326;2023-04-26T01:41:31;100940.44;;;5.91;72.98
15750;BME280;7976;52.526;13.326;2023-04-26T01:43:59;100948.28;;;5.86;72.95
15750;BME280;7976;52.526;13.326;2023-04-26T01:46:26;100942.25;;;5.86;73.31
15750;BME280;7976;52.526;13.326;2023-04-26T01:48:53;100948.31;;;5.85;73.08
15750;BME280;7976;52.526;13.326;2023-04-26T01:51:22;100949.16;;;5.85;73.23
15750;BME280;7976;52.526;13.326;2023-04-26T01:53:48;100941.38;;;5.85;73.24
15750;BME280;7976;52.526;13.326;2023-04-26T01:56:15;100946.63;;;5.79;73.50
15750;BME280;7976;52.526;13.326;2023-04-26T01:58:44;100944.13;;;5.73;73.53
15750;BME280;7976;52.526;13.326;2023-04-26T02:01:11;100950.25;;;5.69;73.98
15750;BME280;7976;52.526;13.326;2023-04-26T02:03:38;100948.50;;;5.70;74.06
15750;BME280;7976;52.526;13.326;2023-04-26T02:06:05;100947.66;;;5.68;74.02
15750;BME280;7976;52.526;13.326;2023-04-26T02:08:32;100945.94;;;5.67;74.10
15750;BME280;7976;52.526;13.326;2023-04-26T02:10:58;100942.56;;;5.60;74.24
15750;BME280;7976;52.526;13.326;2023-04-26T02:13:25;100947.75;;;5.60;74.41
15750;BME280;7976;52.526;13.326;2023-04-26T02:15:53;100946.06;;;5.58;74.71
15750;BME280;7976;52.526;13.326;2023-04-26T02:18:20;100941.81;;;5.54;74.55
15750;BME280;7976;52.526;13.326;2023-04-26T02:20:49;100958.25;;;5.54;74.69
15750;BME280;7976;52.526;13.326;2023-04-26T02:23:16;100944.44;;;5.51;75.01
15750;BME280;7976;52.526;13.326;2023-04-26T02:25:45;100955.72;;;5.48;75.03
15750;BME280;7976;52.526;13.326;2023-04-26T02:28:12;100952.28;;;5.46;75.10
15750;BME280;7976;52.526;13.326;2023-04-26T02:30:39;100946.25;;;5.46;74.94
15750;BME280;7976;52.526;13.326;2023-04-26T02:33:08;100946.28;;;5.44;75.41
15750;BME280;7976;52.526;13.326;2023-04-26T02:35:35;100947.94;;;5.47;75.39
15750;BME280;7976;52.526;13.326;2023-04-26T02:38:03;100947.09;;;5.45;75.35
15750;BME280;7976;52.526;13.326;2023-04-26T02:40:31;100941.13;;;5.40;75.59
15750;BME280;7976;52.526;13.326;2023-04-26T02:42:58;100937.69;;;5.36;75.82
15750;BME280;7976;52.526;13.326;2023-04-26T02:45:25;100950.75;;;5.32;75.97
15750;BME280;7976;52.526;13.326;2023-04-26T02:47:52;100945.56;;;5.30;76.06
15750;BME280;7976;52.526;13.326;2023-04-26T02:50:21;100942.19;;;5.25;75.97
15750;BME280;7976;52.526;13.326;2023-04-26T02:52:50;100943.03;;;5.26;76.13
15750;BME280;7976;52.526;13.326;2023-04-26T02:55:17;100943.03;;;5.26;76.39
15750;BME280;7976;52.526;13.326;2023-04-26T02:57:44;100937.88;;;5.23;76.31
15750;BME280;7976;52.526;13.326;2023-04-26T03:00:12;100941.34;;;5.22;76.47
15750;BME280;7976;52.526;13.326;2023-04-26T03:02:40;100942.28;;;5.19;76.71
15750;BME280;7976;52.526;13.326;2023-04-26T03:05:08;100951.78;;;5.19;76.69
15750;BME280;7976;52.526;13.326;2023-04-26T03:07:36;100949.19;;;5.19;76.99
15750;BME280;7976;52.526;13.326;2023-04-26T03:10:04;100953.56;;;5.13;76.93
15750;BME280;7976;52.526;13.326;2023-04-26T03:12:33;100950.09;;;5.13;77.14
15750;BME280;7976;52.526;13.326;2023-04-26T03:15:00;100952.69;;;5.13;77.30
15750;BME280;7976;52.526;13.326;2023-04-26T03:17:29;100955.28;;;5.14;77.27
15750;BME280;7976;52.526;13.326;2023-04-26T03:19:56;100953.56;;;5.13;77.29
15750;BME280;7976;52.526;13.326;2023-04-26T03:22:22;100956.16;;;5.13;77.41
15750;BME280;7976;52.526;13.326;2023-04-26T03:24:51;100950.06;;;5.16;77.38
15750;BME280;7976;52.526;13.326;2023-04-26T03:27:18;100952.63;;;5.18;77.35
15750;BME280;7976;52.526;13.326;2023-04-26T03:29:45;100959.56;;;5.17;77.28
15750;BME280;7976;52.526;13.326;2023-04-26T03:32:12;100965.59;;;5.18;77.36
15750;BME280;7976;52.526;13.326;2023-04-26T03:34:39;100957.84;;;5.16;77.64
15750;BME280;7976;52.526;13.326;2023-04-26T03:37:05;100963.94;;;5.13;77.56
15750;BME280;7976;52.526;13.326;2023-04-26T03:39:32;100964.03;;;5.04;77.46
15750;BME280;7976;52.526;13.326;2023-04-26T03:42:00;100958.94;;;4.98;78.13
15750;BME280;7976;52.526;13.326;2023-04-26T03:44:28;100966.72;;;4.94;78.27
15750;BME280;7976;52.526;13.326;2023-04-26T03:46:55;100972.75;;;4.97;78.38
15750;BME280;7976;52.526;13.326;2023-04-26T03:49:22;100972.75;;;4.97;78.17
15750;BME280;7976;52.526;13.326;2023-04-26T03:51:49;100974.53;;;4.95;78.44
15750;BME280;7976;52.526;13.326;2023-04-26T03:54:16;100967.56;;;4.97;78.65
15750;BME280;7976;52.526;13.326;2023-04-26T03:56:43;100970.16;;;5.00;78.65
15750;BME280;7976;52.526;13.326;2023-04-26T03:59:12;100970.97;;;5.01;78.60
15750;BME280;7976;52.526;13.326;2023-04-26T04:01:39;100969.22;;;5.03;78.51
15750;BME280;7976;52.526;13.326;2023-04-26T04:04:06;100967.50;;;5.03;78.65
15750;BME280;7976;52.526;13.326;2023-04-26T04:06:34;100972.69;;;5.03;78.43
15750;BME280;7976;52.526;13.326;2023-04-26T04:09:01;100978.72;;;5.05;78.62
15750;BME280;7976;52.526;13.326;2023-04-26T04:11:30;100973.53;;;5.05;78.39
15750;BME280;7976;52.526;13.326;2023-04-26T04:13:57;100981.31;;;5.05;78.79
15750;BME280;7976;52.526;13.326;2023-04-26T04:16:25;100982.16;;;5.06;78.44
15750;BME280;7976;52.526;13.326;2023-04-26T04:18:52;100979.53;;;5.09;78.64
15750;BME280;7976;52.526;13.326;2023-04-26T04:21:19;100977.81;;;5.09;78.57
15750;BME280;7976;52.526;13.326;2023-04-26T04:23:46;100982.97;;;5.09;78.63
15750;BME280;7976;52.526;13.326;2023-04-26T04:26:14;100989.91;;;5.07;78.38
15750;BME280;7976;52.526;13.326;2023-04-26T04:28:41;100981.31;;;5.02;78.49
15750;BME280;7976;52.526;13.326;2023-04-26T04:31:10;100993.44;;;5.03;78.51
15750;BME280;7976;52.526;13.326;2023-04-26T04:33:38;100992.59;;;5.01;78.60
15750;BME280;7976;52.526;13.326;2023-04-26T04:36:07;100991.69;;;5.02;78.56
15750;BME280;7976;52.526;13.326;2023-04-26T04:38:34;100991.69;;;5.02;78.68
15750;BME280;7976;52.526;13.326;2023-04-26T04:41:04;100994.31;;;5.01;78.47
15750;BME280;7976;52.526;13.326;2023-04-26T04:43:32;101002.97;;;5.01;78.55
15750;BME280;7976;52.526;13.326;2023-04-26T04:45:59;101002.06;;;5.02;78.56
15750;BME280;7976;52.526;13.326;2023-04-26T04:48:26;101002.91;;;5.06;78.47
15750;BME280;7976;52.526;13.326;2023-04-26T04:50:57;101000.28;;;5.07;78.72
15750;BME280;7976;52.526;13.326;2023-04-26T04:53:23;101004.63;;;5.07;78.51
15750;BME280;7976;52.526;13.326;2023-04-26T04:55:50;101014.09;;;5.09;78.52
15750;BME280;7976;52.526;13.326;2023-04-26T04:58:17;100998.50;;;5.16;78.42
15750;BME280;7976;52.526;13.326;2023-04-26T05:00:44;101009.69;;;5.19;78.57
15750;BME280;7976;52.526;13.326;2023-04-26T05:03:25;101017.44;;;5.22;78.39
15750;BME280;7976;52.526;13.326;2023-04-26T05:05:52;101012.19;;;5.27;78.52
15750;BME280;7976;52.526;13.326;2023-04-26T05:08:20;101008.69;;;5.31;78.34
15750;BME280;7976;52.526;13.326;2023-04-26T05:10:47;101012.06;;;5.37;77.83
15750;BME280;7976;52.526;13.326;2023-04-26T05:13:14;101021.50;;;5.44;77.67
15750;BME280;7976;52.526;13.326;2023-04-26T05:15:41;101030.09;;;5.49;77.55
15750;BME280;7976;52.526;13.326;2023-04-26T05:18:08;101018.75;;;5.55;77.48
15750;BME280;7976;52.526;13.326;2023-04-26T05:20:35;101023.94;;;5.55;77.30
15750;BME280;7976;52.526;13.326;2023-04-26T05:23:02;101034.34;;;5.55;77.28
15750;BME280;7976;52.526;13.326;2023-04-26T05:25:30;101029.16;;;5.55;77.33
15750;BME280;7976;52.526;13.326;2023-04-26T05:28:05;101044.63;;;5.62;77.30
15750;BME280;7976;52.526;13.326;2023-04-26T05:30:57;101042.03;;;5.64;77.05
15750;BME280;7976;52.526;13.326;2023-04-26T05:33:31;101030.69;;;5.71;77.19
15750;BME280;7976;52.526;13.326;2023-04-26T05:36:26;101047.09;;;5.74;76.95
15750;BME280;7976;52.526;13.326;2023-04-26T05:38:53;101035.75;;;5.78;76.64
15750;BME280;7976;52.526;13.326;2023-04-26T05:41:21;101037.47;;;5.81;76.73
15750;BME280;7976;52.526;13.326;2023-04-26T05:43:48;101041.72;;;5.88;76.76
15750;BME280;7976;52.526;13.326;2023-04-26T05:46:15;101040.75;;;5.95;76.51
15750;BME280;7976;52.526;13.326;2023-04-26T05:48:42;101058.09;;;5.96;76.28
15750;BME280;7976;52.526;13.326;2023-04-26T05:51:09;101053.69;;;5.98;76.27
15750;BME280;7976;52.526;13.326;2023-04-26T05:53:36;101049.31;;;6.03;76.38
15750;BME280;7976;52.526;13.326;2023-04-26T05:56:04;101051.84;;;6.07;76.12
15750;BME280;7976;52.526;13.326;2023-04-26T05:58:33;101041.34;;;6.15;76.06
15750;BME280;7976;52.526;13.326;2023-04-26T06:01:00;101059.41;;;6.24;76.02
15750;BME280;7976;52.526;13.326;2023-04-26T06:03:27;101043.81;;;6.24;75.94
15750;BME280;7976;52.526;13.326;2023-04-26T06:05:54;101055.00;;;6.29;75.75
15750;BME280;7976;52.526;13.326;2023-04-26T06:08:22;101058.41;;;6.32;75.76
15750;BME280;7976;52.526;13.326;2023-04-26T06:10:49;101067.84;;;6.38;75.54
15750;BME280;7976;52.526;13.326;2023-04-26T06:13:16;101066.94;;;6.41;75.21
15750;BME280;7976;52.526;13.326;2023-04-26T06:15:44;101056.59;;;6.39;75.29
15750;BME280;7976;52.526;13.326;2023-04-26T06:18:10;101061.69;;;6.44;75.14
15750;BME280;7976;52.526;13.326;2023-04-26T06:20:37;101061.59;;;6.51;75.00
15750;BME280;7976;52.526;13.326;2023-04-26T06:23:05;101058.00;;;6.60;74.68
15750;BME280;7976;52.526;13.326;2023-04-26T06:25:32;101067.44;;;6.64;74.43
15750;BME280;7976;52.526;13.326;2023-04-26T06:27:59;101058.69;;;6.69;74.33
15750;BME280;7976;52.526;13.326;2023-04-26T06:30:26;101075.94;;;6.76;74.24
15750;BME280;7976;52.526;13.326;2023-04-26T06:32:54;101071.44;;;6.86;73.89
15750;BME280;7976;52.526;13.326;2023-04-26T06:35:23;101070.50;;;6.88;73.57
15750;BME280;7976;52.526;13.326;2023-04-26T06:37:50;101065.31;;;6.90;73.60
15750;BME280;7976;52.526;13.326;2023-04-26T06:40:17;101071.22;;;6.98;73.67
15750;BME280;7976;52.526;13.326;2023-04-26T06:42:44;101065.75;;;7.13;73.42
15750;BME280;7976;52.526;13.326;2023-04-26T06:45:31;101066.31;;;7.30;73.14
15750;BME280;7976;52.526;13.326;2023-04-26T06:48:01;101066.09;;;7.40;72.97
15750;BME280;7976;52.526;13.326;2023-04-26T06:50:30;101073.75;;;7.48;72.25
15750;BME280;7976;52.526;13.326;2023-04-26T06:52:56;101076.19;;;7.55;72.00
15750;BME280;7976;52.526;13.326;2023-04-26T06:55:23;101076.13;;;7.58;71.57
15750;BME280;7976;52.526;13.326;2023-04-26T06:57:50;101069.31;;;7.53;71.50
15750;BME280;7976;52.526;13.326;2023-04-26T07:00:18;101069.25;;;7.56;71.50
15750;BME280;7976;52.526;13.326;2023-04-26T07:02:45;101072.63;;;7.61;71.45
15750;BME280;7976;52.526;13.326;2023-04-26T07:05:13;101066.59;;;7.59;71.26
15750;BME280;7976;52.526;13.326;2023-04-26T07:07:40;101071.75;;;7.60;71.18
15750;BME280;7976;52.526;13.326;2023-04-26T07:10:08;101074.19;;;7.70;70.93
15750;BME280;7976;52.526;13.326;2023-04-26T07:12:35;101076.63;;;7.77;70.52
15750;BME280;7976;52.526;13.326;2023-04-26T07:15:03;101080.88;;;7.83;70.46
15750;BME280;7976;52.526;13.326;2023-04-26T07:17:31;101070.19;;;7.95;69.91
15750;BME280;7976;52.526;13.326;2023-04-26T07:19:58;101075.88;;;8.13;69.74
15750;BME280;7976;52.526;13.326;2023-04-26T07:22:26;101082.53;;;8.28;69.20
15750;BME280;7976;52.526;13.326;2023-04-26T07:24:53;101077.75;;;8.46;68.61
15750;BME280;7976;52.526;13.326;2023-04-26T07:27:20;101080.94;;;8.59;68.36
15750;BME280;7976;52.526;13.326;2023-04-26T07:29:46;101072.22;;;8.60;68.02
15750;BME280;7976;52.526;13.326;2023-04-26T07:32:13;101074.66;;;8.66;67.86
15750;BME280;7976;52.526;13.326;2023-04-26T07:34:40;101082.31;;;8.73;67.45
15750;BME280;7976;52.526;13.326;2023-04-26T07:37:07;101081.75;;;8.61;67.57
15750;BME280;7976;52.526;13.326;2023-04-26T07:39:35;101077.44;;;8.60;67.57
15750;BME280;7976;52.526;13.326;2023-04-26T07:42:02;101082.38;;;8.72;67.43
15750;BME280;7976;52.526;13.326;2023-04-26T07:44:29;101089.69;;;8.92;67.16
15750;BME280;7976;52.526;13.326;2023-04-26T07:46:56;101089.88;;;9.18;66.43
15750;BME280;7976;52.526;13.326;2023-04-26T07:49:23;101085.94;;;9.35;65.53
15750;BME280;7976;52.526;13.326;2023-04-26T07:51:50;101089.38;;;9.37;64.75
15750;BME280;7976;52.526;13.326;2023-04-26T07:54:17;101097.41;;;9.30;64.69
15750;BME280;7976;52.526;13.326;2023-04-26T07:56:45;101087.81;;;9.30;65.03
15750;BME280;7976;52.526;13.326;2023-04-26T07:59:12;101087.59;;;9.39;64.77
15750;BME280;7976;52.526;13.326;2023-04-26T08:01:39;101092.81;;;9.39;64.74
15750;BME280;7976;52.526;13.326;2023-04-26T08:04:05;101102.44;;;9.37;64.38
15750;BME280;7976;52.526;13.326;2023-04-26T08:06:32;101104.41;;;9.29;64.23
15750;BME280;7976;52.526;13.326;2023-04-26T08:08:59;101105.44;;;9.22;64.41
15750;BME280;7976;52.526;13.326;2023-04-26T08:11:26;101105.53;;;9.19;64.15
15750;BME280;7976;52.526;13.326;2023-04-26T08:13:54;101109.16;;;9.14;64.03
15750;BME280;7976;52.526;13.326;2023-04-26T08:16:21;101105.66;;;9.13;64.07
15750;BME280;7976;52.526;13.326;2023-04-26T08:18:48;101109.22;;;9.11;64.28
15750;BME280;7976;52.526;13.326;2023-04-26T08:21:14;101103.66;;;9.24;63.91
15750;BME280;7976;52.526;13.326;2023-04-26T08:23:41;101110.19;;;9.40;63.73
15750;BME280;7976;52.526;13.326;2023-04-26T08:26:08;101100.97;;;9.58;63.08
15750;BME280;7976;52.526;13.326;2023-04-26T08:28:36;101106.19;;;9.59;62.34
15750;BME280;7976;52.526;13.326;2023-04-26T08:31:04;101117.78;;;9.49;62.53
15750;BME280;7976;52.526;13.326;2023-04-26T08:33:31;101115.72;;;9.28;63.17
15750;BME280;7976;52.526;13.326;2023-04-26T08:35:58;101122.28;;;9.11;64.01
15750;BME280;7976;52.526;13.326;2023-04-26T08:38:25;101117.44;;;8.96;64.83
15750;BME280;7976;52.526;13.326;2023-04-26T08:40:57;101111.56;;;8.86;65.44
15750;BME280;7976;52.526;13.326;2023-04-26T08:43:27;101114.03;;;8.92;65.97
15750;BME280;7976;52.526;13.326;2023-04-26T08:45:56;101113.59;;;9.10;65.78
15750;BME280;7976;52.526;13.326;2023-04-26T08:48:30;101115.59;;;9.34;66.08
15750;BME280;7976;52.526;13.326;2023-04-26T08:51:00;101106.06;;;9.64;65.58
15750;BME280;7976;52.526;13.326;2023-04-26T08:53:29;101106.78;;;9.99;64.81
15750;BME280;7976;52.526;13.326;2023-04-26T08:55:57;101093.81;;;10.26;63.48
15750;BME280;7976;52.526;13.326;2023-04-26T08:58:25;101118.81;;;10.36;62.25
15750;BME280;7976;52.526;13.326;2023-04-26T09:00:53;101112.31;;;10.20;61.65
15750;BME280;7976;52.526;13.326;2023-04-26T09:03:22;101105.66;;;10.08;61.65
15750;BME280;7976;52.526;13.326;2023-04-26T09:05:52;101107.41;;;10.09;61.46
15750;BME280;7976;52.526;13.326;2023-04-26T09:08:20;101109.31;;;10.02;61.68
15750;BME280;7976;52.526;13.326;2023-04-26T09:10:47;101113.00;;;9.95;61.31
15750;BME280;7976;52.526;13.326;2023-04-26T09:13:14;101116.84;;;9.82;60.88
15750;BME280;7976;52.526;13.326;2023-04-26T09:15:41;101114.34;;;9.79;60.92
15750;BME280;7976;52.526;13.326;2023-04-26T09:18:18;101110.56;;;9.88;60.71
15750;BME280;7976;52.526;13.326;2023-04-26T09:21:02;101117.31;;;9.96;60.29
15750;BME280;7976;52.526;13.326;2023-04-26T09:23:30;101113.63;;;10.03;59.68
15750;BME280;7976;52.526;13.326;2023-04-26T09:26:16;101114.06;;;10.19;59.48
15750;BME280;7976;52.526;13.326;2023-04-26T09:28:43;101107.84;;;10.23;58.85
15750;BME280;7976;52.526;13.326;2023-04-26T09:31:12;101106.81;;;10.29;58.88
15750;BME280;7976;52.526;13.326;2023-04-26T09:33:58;101105.16;;;10.54;58.39
15750;BME280;7976;52.526;13.326;2023-04-26T09:36:26;101099.16;;;10.78;57.65
15750;BME280;7976;52.526;13.326;2023-04-26T09:38:53;101103.84;;;10.94;57.10
15750;BME280;7976;52.526;13.326;2023-04-26T09:41:19;101101.00;;;11.00;56.40
15750;BME280;7976;52.526;13.326;2023-04-26T09:43:49;101108.72;;;11.05;56.01
15750;BME280;7976;52.526;13.326;2023-04-26T09:46:21;101109.50;;;11.08;55.72
15750;BME280;7976;52.526;13.326;2023-04-26T09:49:00;101092.22;;;11.27;55.05
15750;BME280;7976;52.526;13.326;2023-04-26T09:51:29;101108.47;;;11.37;54.16
15750;BME280;7976;52.526;13.326;2023-04-26T09:53:56;101095.81;;;11.25;53.87
15750;BME280;7976;52.526;13.326;2023-04-26T09:56:23;101104.09;;;11.13;53.88
15750;BME280;7976;52.526;13.326;2023-04-26T09:58:58;101095.75;;;11.00;54.26
15750;BME280;7976;52.526;13.326;2023-04-26T10:01:28;101110.81;;;10.94;54.21
15750;BME280;7976;52.526;13.326;2023-04-26T10:03:55;101098.94;;;10.84;54.01
15750;BME280;7976;52.526;13.326;2023-04-26T10:06:23;101100.03;;;10.77;53.93
15750;BME280;7976;52.526;13.326;2023-04-26T10:08:51;101107.19;;;10.72;53.78
15750;BME280;7976;52.526;13.326;2023-04-26T10:11:20;101110.50;;;10.77;53.58
15750;BME280;7976;52.526;13.326;2023-04-26T10:13:49;101109.06;;;10.68;53.19
15750;BME280;7976;52.526;13.326;2023-04-26T10:16:17;101106.78;;;10.58;53.07
15750;BME280;7976;52.526;13.326;2023-04-26T10:18:44;101113.91;;;10.53;52.98
15750;BME280;7976;52.526;13.326;2023-04-26T10:21:18;101109.06;;;10.41;52.73
15750;BME280;7976;52.526;13.326;2023-04-26T10:23:48;101107.72;;;10.28;53.09
15750;BME280;7976;52.526;13.326;2023-04-26T10:26:51;101104.81;;;10.07;53.48
15750;BME280;7976;52.526;13.326;2023-04-26T10:29:20;101125.38;;;9.89;53.67
15750;BME280;7976;52.526;13.326;2023-04-26T10:32:09;101121.50;;;9.71;54.37
15750;BME280;7976;52.526;13.326;2023-04-26T10:34:41;101134.94;;;9.58;55.34
15750;BME280;7976;52.526;13.326;2023-04-26T10:37:10;101129.84;;;9.53;55.95
15750;BME280;7976;52.526;13.326;2023-04-26T10:39:38;101127.00;;;9.62;56.67
15750;BME280;7976;52.526;13.326;2023-04-26T10:42:24;101115.19;;;9.80;57.13
15750;BME280;7976;52.526;13.326;2023-04-26T10:44:52;101120.94;;;9.92;56.99
15750;BME280;7976;52.526;13.326;2023-04-26T10:47:27;101118.72;;;10.09;57.16
15750;BME280;7976;52.526;13.326;2023-04-26T10:50:06;101116.44;;;10.28;56.30
15750;BME280;7976;52.526;13.326;2023-04-26T10:52:34;101119.47;;;10.42;55.78
15750;BME280;7976;52.526;13.326;2023-04-26T10:55:01;101120.09;;;10.50;55.23
15750;BME280;7976;52.526;13.326;2023-04-26T10:57:52;101126.28;;;10.48;54.39
15750;BME280;7976;52.526;13.326;2023-04-26T11:00:29;101121.25;;;10.40;54.56
15750;BME280;7976;52.526;13.326;2023-04-26T11:03:02;101114.47;;;10.35;54.30
15750;BME280;7976;52.526;13.326;2023-04-26T11:05:34;101119.63;;;10.38;54.36
15750;BME280;7976;52.526;13.326;2023-04-26T11:08:07;101116.81;;;10.44;53.85
15750;BME280;7976;52.526;13.326;2023-04-26T11:10:40;101123.66;;;10.48;53.72
15750;BME280;7976;52.526;13.326;2023-04-26T11:13:08;101120.84;;;10.54;53.53
15750;BME280;7976;52.526;13.326;2023-04-26T11:15:35;101119.75;;;10.61;53.66
15750;BME280;7976;52.526;13.326;2023-04-26T11:18:03;101116.06;;;10.68;53.38
15750;BME280;7976;52.526;13.326;2023-04-26T11:20:31;101106.44;;;10.68;52.82
15750;BME280;7976;52.526;13.326;2023-04-26T11:22:59;101113.88;;;10.80;52.47
15750;BME280;7976;52.526;13.326;2023-04-26T11:25:28;101114.38;;;10.93;51.78
15750;BME280;7976;52.526;13.326;2023-04-26T11:28:00;101114.25;;;10.96;51.26
15750;BME280;7976;52.526;13.326;2023-04-26T11:30:31;101108.03;;;11.00;51.27
15750;BME280;7976;52.526;13.326;2023-04-26T11:32:59;101117.28;;;11.10;51.28
15750;BME280;7976;52.526;13.326;2023-04-26T11:35:27;101113.47;;;11.20;51.22
15750;BME280;7976;52.526;13.326;2023-04-26T11:37:58;101115.84;;;11.26;51.05
15750;BME280;7976;52.526;13.326;2023-04-26T11:40:31;101120.28;;;11.24;50.53
15750;BME280;7976;52.526;13.326;2023-04-26T11:42:59;101122.97;;;11.22;50.44
15750;BME280;7976;52.526;13.326;2023-04-26T11:45:30;101121.22;;;11.23;50.48
15750;BME280;7976;52.526;13.326;2023-04-26T11:47:57;101113.53;;;11.17;50.79
15750;BME280;7976;52.526;13.326;2023-04-26T11:50:25;101123.38;;;11.10;51.08
15750;BME280;7976;52.526;13.326;2023-04-26T11:52:58;101127.19;;;11.00;50.94
15750;BME280;7976;52.526;13.326;2023-04-26T11:55:27;101124.03;;;10.91;51.18
15750;BME280;7976;52.526;13.326;2023-04-26T11:57:55;101126.03;;;10.83;50.47
15750;BME280;7976;52.526;13.326;2023-04-26T12:00:24;101128.75;;;10.80;50.22
15750;BME280;7976;52.526;13.326;2023-04-26T12:02:52;101116.56;;;10.79;50.13
15750;BME280;7976;52.526;13.326;2023-04-26T12:05:23;101130.34;;;10.84;49.77
15750;BME280;7976;52.526;13.326;2023-04-26T12:07:52;101121.19;;;10.97;49.75
15750;BME280;7976;52.526;13.326;2023-04-26T12:10:24;101125.34;;;11.30;49.10
15750;BME280;7976;52.526;13.326;2023-04-26T12:12:53;101131.44;;;11.55;48.59
15750;BME280;7976;52.526;13.326;2023-04-26T12:15:28;101123.97;;;11.69;48.34
15750;BME280;7976;52.526;13.326;2023-04-26T12:17:59;101124.84;;;11.70;48.44
15750;BME280;7976;52.526;13.326;2023-04-26T12:20:32;101139.69;;;11.69;48.74
15750;BME280;7976;52.526;13.326;2023-04-26T12:23:02;101134.75;;;11.60;49.12
15750;BME280;7976;52.526;13.326;2023-04-26T12:25:31;101136.19;;;11.44;49.63
15750;BME280;7976;52.526;13.326;2023-04-26T12:27:58;101139.22;;;11.32;49.90
15750;BME280;7976;52.526;13.326;2023-04-26T12:30:27;101141.94;;;11.29;50.44
15750;BME280;7976;52.526;13.326;2023-04-26T12:33:02;101141.13;;;11.27;50.88
15750;BME280;7976;52.526;13.326;2023-04-26T12:35:29;101145.78;;;11.19;51.06
15750;BME280;7976;52.526;13.326;2023-04-26T12:37:56;101141.75;;;11.09;51.21
15750;BME280;7976;52.526;13.326;2023-04-26T12:40:26;101140.28;;;11.00;51.83
15750;BME280;7976;52.526;13.326;2023-04-26T12:42:54;101124.94;;;10.90;52.09
15750;BME280;7976;52.526;13.326;2023-04-26T12:45:22;101133.69;;;10.89;52.41
15750;BME280;7976;52.526;13.326;2023-04-26T12:47:51;101135.47;;;10.88;52.50
15750;BME280;7976;52.526;13.326;2023-04-26T12:50:21;101124.84;;;10.93;52.71
15750;BME280;7976;52.526;13.326;2023-04-26T12:52:48;101125.22;;;11.07;52.23
15750;BME280;7976;52.526;13.326;2023-04-26T12:55:15;101120.88;;;11.32;51.94
15750;BME280;7976;52.526;13.326;2023-04-26T12:57:44;101130.59;;;11.55;51.11
15750;BME280;7976;52.526;13.326;2023-04-26T13:00:13;101125.34;;;11.79;50.54
15750;BME280;7976;52.526;13.326;2023-04-26T13:02:42;101120.88;;;12.06;49.49
15750;BME280;7976;52.526;13.326;2023-04-26T13:05:09;101113.03;;;12.27;48.82